createdAt,value
2017-11-27T00:00:09.986Z,-0.10
2017-11-27T00:02:38.254Z,-0.10
2017-11-27T00:05:05.776Z,-0.10
2017-11-27T00:07:33.284Z,-0.10
2017-11-27T00:10:01.963Z,-0.10
2017-11-27T00:12:30.223Z,0.00
2017-11-27T00:14:57.743Z,-0.10
2017-11-27T00:17:25.247Z,0.00
2017-11-27T00:19:53.605Z,0.00
2017-11-27T00:22:32.729Z,0.00
2017-11-27T00:25:01.009Z,0.00
2017-11-27T00:27:28.504Z,0.00
2017-11-27T00:29:56.788Z,0.00
2017-11-27T00:32:25.055Z,-0.10
2017-11-27T00:34:53.333Z,0.00
2017-11-27T00:37:21.595Z,0.00
2017-11-27T00:39:49.116Z,0.00
2017-11-27T00:42:16.608Z,0.00
2017-11-27T00:44:44.129Z,-0.10
2017-11-27T00:47:11.636Z,-0.10
2017-11-27T00:49:39.933Z,-0.10
2017-11-27T00:52:07.445Z,-0.10
2017-11-27T00:54:34.940Z,-0.10
2017-11-27T00:57:02.484Z,-0.10
2017-11-27T00:59:30.757Z,-0.20
2017-11-27T01:01:59.036Z,-0.20
2017-11-27T01:04:27.299Z,-0.20
2017-11-27T01:06:54.839Z,-0.20
2017-11-27T01:09:22.340Z,-0.20
2017-11-27T01:11:50.613Z,-0.20
2017-11-27T01:14:18.901Z,-0.10
2017-11-27T01:16:46.403Z,-0.10
2017-11-27T01:19:13.935Z,-0.10
2017-11-27T01:21:41.444Z,-0.10
2017-11-27T01:24:09.736Z,0.00
2017-11-27T01:26:37.995Z,0.00
2017-11-27T01:29:05.505Z,0.10
2017-11-27T01:31:32.995Z,0.10
2017-11-27T01:34:00.509Z,0.10
2017-11-27T01:36:28.013Z,0.10
2017-11-27T01:38:55.524Z,0.00
2017-11-27T01:41:23.019Z,0.00
2017-11-27T01:43:50.533Z,0.10
2017-11-27T01:46:18.037Z,0.00
2017-11-27T01:48:45.551Z,0.00
2017-11-27T01:51:13.060Z,0.10
2017-11-27T01:53:40.600Z,0.10
2017-11-27T01:56:08.108Z,0.10
2017-11-27T01:58:36.377Z,0.30
2017-11-27T02:01:04.668Z,0.20
2017-11-27T02:03:32.927Z,0.20
2017-11-27T02:06:01.215Z,0.10
2017-11-27T02:08:29.476Z,0.10
2017-11-27T02:10:56.988Z,0.10
2017-11-27T02:13:24.483Z,0.10
2017-11-27T02:15:52.776Z,0.20
2017-11-27T02:18:21.031Z,0.10
2017-11-27T02:20:48.541Z,0.10
2017-11-27T02:23:16.047Z,0.20
2017-11-27T02:25:43.556Z,0.20
2017-11-27T02:28:11.061Z,0.20
2017-11-27T02:30:38.574Z,0.10
2017-11-27T02:33:06.067Z,0.10
2017-11-27T02:35:33.576Z,0.10
2017-11-27T02:38:01.081Z,0.20
2017-11-27T02:40:28.603Z,0.20
2017-11-27T02:42:56.101Z,0.20
2017-11-27T02:45:23.612Z,0.10
2017-11-27T02:47:51.113Z,0.20
2017-11-27T02:50:18.623Z,0.10
2017-11-27T02:52:46.117Z,0.10
2017-11-27T02:55:13.635Z,0.10
2017-11-27T02:57:41.134Z,0.20
2017-11-27T03:00:09.420Z,0.20
2017-11-27T03:02:36.924Z,0.20
2017-11-27T03:05:04.423Z,0.20
2017-11-27T03:07:31.936Z,0.20
2017-11-27T03:10:00.197Z,0.20
2017-11-27T03:12:28.484Z,0.30
2017-11-27T03:14:56.752Z,0.20
2017-11-27T03:17:25.028Z,0.20
2017-11-27T03:19:53.317Z,0.20
2017-11-27T03:22:20.840Z,0.20
2017-11-27T03:24:48.334Z,0.10
2017-11-27T03:27:16.607Z,0.10
2017-11-27T03:29:44.108Z,0.10
2017-11-27T03:32:11.619Z,0.20
2017-11-27T03:34:39.880Z,0.20
2017-11-27T03:37:07.396Z,0.20
2017-11-27T03:39:34.897Z,0.20
2017-11-27T03:42:03.176Z,0.20
2017-11-27T03:44:31.439Z,0.10
2017-11-27T03:46:58.956Z,0.00
2017-11-27T03:49:26.456Z,0.10
2017-11-27T03:51:53.970Z,0.00
2017-11-27T03:54:21.467Z,0.10
2017-11-27T03:56:48.971Z,0.10
2017-11-27T03:59:16.488Z,0.00
2017-11-27T04:01:43.979Z,0.00
2017-11-27T04:04:11.497Z,0.10
2017-11-27T04:06:38.992Z,0.10
2017-11-27T04:09:06.529Z,0.10
2017-11-27T04:11:34.028Z,0.10
2017-11-27T04:14:01.549Z,0.20
2017-11-27T04:16:29.824Z,0.10
2017-11-27T04:18:58.109Z,0.10
2017-11-27T04:21:26.367Z,0.10
2017-11-27T04:23:53.876Z,0.10
2017-11-27T04:26:22.272Z,0.20
2017-11-27T04:28:49.796Z,0.20
2017-11-27T04:31:17.287Z,0.20
2017-11-27T04:33:44.803Z,0.10
2017-11-27T04:36:12.299Z,0.20
2017-11-27T04:38:39.814Z,0.20
2017-11-27T04:41:08.080Z,0.20
2017-11-27T04:43:36.356Z,0.20
2017-11-27T04:46:04.615Z,0.20
2017-11-27T04:48:32.145Z,0.20
2017-11-27T04:50:59.632Z,0.20
2017-11-27T04:53:27.131Z,0.20
2017-11-27T04:55:54.640Z,0.20
2017-11-27T04:58:22.132Z,0.20
2017-11-27T05:00:50.408Z,0.10
2017-11-27T05:03:18.659Z,0.10
2017-11-27T05:05:46.175Z,0.10
2017-11-27T05:08:13.671Z,0.10
2017-11-27T05:10:41.194Z,0.10
2017-11-27T05:13:08.689Z,0.00
2017-11-27T05:15:36.205Z,-0.10
2017-11-27T05:18:03.700Z,-0.10
2017-11-27T05:20:31.212Z,-0.20
2017-11-27T05:22:59.608Z,-0.20
2017-11-27T05:25:27.120Z,-0.20
2017-11-27T05:27:55.688Z,0.00
2017-11-27T05:30:23.969Z,0.00
2017-11-27T05:32:52.228Z,0.00
2017-11-27T05:35:19.736Z,0.00
2017-11-27T05:37:47.241Z,0.00
2017-11-27T05:40:15.064Z,0.00
2017-11-27T05:42:42.556Z,0.00
2017-11-27T05:45:10.057Z,0.00
2017-11-27T05:47:38.334Z,0.00
2017-11-27T05:50:05.832Z,0.00
2017-11-27T05:52:34.116Z,-0.10
2017-11-27T05:55:01.620Z,-0.10
2017-11-27T05:57:29.920Z,-0.20
2017-11-27T05:59:57.416Z,-0.20
2017-11-27T06:02:24.928Z,-0.30
2017-11-27T06:05:04.752Z,-0.30
2017-11-27T06:07:33.041Z,-0.30
2017-11-27T06:10:00.545Z,-0.40
2017-11-27T06:12:28.061Z,-0.40
2017-11-27T06:14:55.560Z,-0.40
2017-11-27T06:17:23.073Z,-0.40
2017-11-27T06:19:51.345Z,-0.50
2017-11-27T06:22:19.630Z,-0.50
2017-11-27T06:24:47.129Z,-0.50
2017-11-27T06:27:15.417Z,-0.40
2017-11-27T06:29:42.921Z,-0.40
2017-11-27T06:32:10.436Z,-0.30
2017-11-27T06:34:37.938Z,-0.20
2017-11-27T06:37:05.457Z,-0.20
2017-11-27T06:39:32.955Z,-0.10
2017-11-27T06:42:00.493Z,-0.20
2017-11-27T06:44:28.751Z,0.00
2017-11-27T06:46:56.258Z,-0.10
2017-11-27T06:49:23.818Z,-0.10
2017-11-27T06:51:51.296Z,-0.10
2017-11-27T06:54:18.808Z,-0.20
2017-11-27T06:56:47.076Z,-0.20
2017-11-27T06:59:15.361Z,-0.30
2017-11-27T07:01:43.628Z,-0.30
2017-11-27T07:04:11.909Z,-0.40
2017-11-27T07:06:40.177Z,0.00
2017-11-27T07:09:08.465Z,0.20
2017-11-27T07:11:36.726Z,0.10
2017-11-27T07:14:05.020Z,0.10
2017-11-27T07:16:32.524Z,0.10
2017-11-27T07:19:00.816Z,0.30
2017-11-27T07:21:28.340Z,0.30
2017-11-27T07:23:55.865Z,0.50
2017-11-27T07:26:23.376Z,0.40
2017-11-27T07:28:50.891Z,0.50
2017-11-27T07:31:18.393Z,0.70
2017-11-27T07:33:45.913Z,0.60
2017-11-27T07:36:13.416Z,0.60
2017-11-27T07:38:46.697Z,0.40
2017-11-27T07:41:14.204Z,0.50
2017-11-27T07:43:42.473Z,0.60
2017-11-27T07:46:10.756Z,0.70
2017-11-27T07:48:39.024Z,0.80
2017-11-27T07:51:07.303Z,0.70
2017-11-27T07:53:35.568Z,0.80
2017-11-27T07:56:03.912Z,0.80
2017-11-27T07:58:32.234Z,0.90
2017-11-27T08:01:00.555Z,1.00
2017-11-27T08:03:28.064Z,0.90
2017-11-27T08:05:56.353Z,1.00
2017-11-27T08:08:23.855Z,1.00
2017-11-27T08:10:51.377Z,1.10
2017-11-27T08:13:18.876Z,1.10
2017-11-27T08:15:47.169Z,1.20
2017-11-27T08:18:14.672Z,1.20
2017-11-27T08:20:42.185Z,1.30
2017-11-27T08:23:09.689Z,1.20
2017-11-27T08:25:37.208Z,1.20
2017-11-27T08:28:04.708Z,1.20
2017-11-27T08:30:32.218Z,1.30
2017-11-27T08:32:59.718Z,1.30
2017-11-27T08:35:27.242Z,1.30
2017-11-27T08:37:54.741Z,1.50
2017-11-27T08:40:22.248Z,1.40
2017-11-27T08:42:49.765Z,1.50
2017-11-27T08:45:17.269Z,1.50
2017-11-27T08:47:44.789Z,1.50
2017-11-27T08:50:12.288Z,1.60
2017-11-27T08:52:39.810Z,1.80
2017-11-27T08:55:07.326Z,1.70
2017-11-27T08:57:34.977Z,1.70
2017-11-27T09:00:03.252Z,1.90
2017-11-27T09:02:31.535Z,1.70
2017-11-27T09:04:59.805Z,1.70
2017-11-27T09:07:28.088Z,1.80
2017-11-27T09:09:56.360Z,1.80
2017-11-27T09:12:24.644Z,1.90
2017-11-27T09:14:52.911Z,1.90
2017-11-27T09:17:20.452Z,1.90
2017-11-27T09:19:47.958Z,1.80
2017-11-27T09:22:15.472Z,2.10
2017-11-27T09:24:42.977Z,2.10
2017-11-27T09:27:10.488Z,2.10
2017-11-27T09:29:38.756Z,2.40
2017-11-27T09:32:06.288Z,2.40
2017-11-27T09:34:33.792Z,2.50
2017-11-27T09:37:02.064Z,2.40
2017-11-27T09:39:30.346Z,2.30
2017-11-27T09:41:58.608Z,2.40
2017-11-27T09:44:26.129Z,2.40
2017-11-27T09:46:53.623Z,2.50
2017-11-27T09:49:21.132Z,2.60
2017-11-27T09:51:48.646Z,2.50
2017-11-27T09:54:16.953Z,2.60
2017-11-27T09:56:44.468Z,2.60
2017-11-27T09:59:11.992Z,2.60
2017-11-27T10:01:39.496Z,2.30
2017-11-27T10:04:07.785Z,2.70
2017-11-27T10:06:36.049Z,3.00
2017-11-27T10:09:04.345Z,3.10
2017-11-27T10:11:31.838Z,3.10
2017-11-27T10:13:59.352Z,2.70
2017-11-27T10:16:27.615Z,2.70
2017-11-27T10:18:55.900Z,2.70
2017-11-27T10:21:24.163Z,2.70
2017-11-27T10:23:51.676Z,2.70
2017-11-27T10:26:19.180Z,2.70
2017-11-27T10:28:46.697Z,2.80
2017-11-27T10:31:14.204Z,2.50
2017-11-27T10:33:43.425Z,2.70
2017-11-27T10:36:10.937Z,2.60
2017-11-27T10:38:38.438Z,2.50
2017-11-27T10:41:05.960Z,2.60
2017-11-27T10:43:33.471Z,2.50
2017-11-27T10:46:01.000Z,2.70
2017-11-27T10:48:29.259Z,3.10
2017-11-27T10:50:57.592Z,3.00
2017-11-27T10:53:25.101Z,3.00
2017-11-27T10:55:53.413Z,2.90
2017-11-27T10:58:20.908Z,2.90
2017-11-27T11:00:54.205Z,2.90
2017-11-27T11:03:21.703Z,3.00
2017-11-27T11:05:50.249Z,3.00
2017-11-27T11:08:17.765Z,3.00
2017-11-27T11:10:45.264Z,3.10
2017-11-27T11:13:12.780Z,3.10
2017-11-27T11:15:40.275Z,3.00
2017-11-27T11:18:07.790Z,2.80
2017-11-27T11:20:35.296Z,2.70
2017-11-27T11:23:02.809Z,2.70
2017-11-27T11:25:30.310Z,2.80
2017-11-27T11:27:57.820Z,2.90
2017-11-27T11:30:25.311Z,3.10
2017-11-27T11:32:53.573Z,3.10
2017-11-27T11:35:21.088Z,3.10
2017-11-27T11:37:49.352Z,3.00
2017-11-27T11:40:20.764Z,3.00
2017-11-27T11:42:45.905Z,3.20
2017-11-27T11:45:14.186Z,3.20
2017-11-27T11:47:42.457Z,3.10
2017-11-27T11:50:10.736Z,3.00
2017-11-27T11:52:38.996Z,3.10
2017-11-27T11:55:06.523Z,3.00
2017-11-27T11:57:34.037Z,3.20
2017-11-27T12:00:02.328Z,3.40
2017-11-27T12:02:31.085Z,3.40
2017-11-27T12:04:58.596Z,3.40
2017-11-27T12:07:26.093Z,3.40
2017-11-27T12:09:53.604Z,3.30
2017-11-27T12:12:21.105Z,3.40
2017-11-27T12:14:48.633Z,3.40
2017-11-27T12:17:16.132Z,3.40
2017-11-27T12:19:43.649Z,3.40
2017-11-27T12:22:11.144Z,3.30
2017-11-27T12:24:38.656Z,3.30
2017-11-27T12:27:06.148Z,3.40
2017-11-27T12:29:33.665Z,3.50
2017-11-27T12:32:01.185Z,3.60
2017-11-27T12:34:29.452Z,3.80
2017-11-27T12:36:56.973Z,3.80
2017-11-27T12:39:24.468Z,3.90
2017-11-27T12:41:51.981Z,4.00
2017-11-27T12:44:19.484Z,3.90
2017-11-27T12:46:46.992Z,4.00
2017-11-27T12:49:14.493Z,4.10
2017-11-27T12:51:42.016Z,4.10
2017-11-27T12:54:09.664Z,4.10
2017-11-27T12:56:37.358Z,4.00
2017-11-27T12:59:04.867Z,3.90
2017-11-27T13:01:33.324Z,3.90
2017-11-27T13:04:00.868Z,3.90
2017-11-27T13:06:28.381Z,4.00
2017-11-27T13:08:55.875Z,4.30
2017-11-27T13:11:23.392Z,4.40
2017-11-27T13:13:50.888Z,4.40
2017-11-27T13:16:18.404Z,4.20
2017-11-27T13:18:45.896Z,4.40
2017-11-27T13:21:13.404Z,4.30
2017-11-27T13:23:41.664Z,4.20
2017-11-27T13:26:09.972Z,4.20
2017-11-27T13:28:37.471Z,4.20
2017-11-27T13:31:04.969Z,4.20
2017-11-27T13:33:33.247Z,4.10
2017-11-27T13:36:01.518Z,3.90
2017-11-27T13:38:29.808Z,3.90
2017-11-27T13:40:57.307Z,3.90
2017-11-27T13:43:24.832Z,3.90
2017-11-27T13:45:52.332Z,3.80
2017-11-27T13:48:19.850Z,4.00
2017-11-27T13:50:47.647Z,3.80
2017-11-27T13:53:15.180Z,4.00
2017-11-27T13:55:42.680Z,4.20
2017-11-27T13:58:10.197Z,4.20
2017-11-27T14:00:37.708Z,4.10
2017-11-27T14:03:05.239Z,4.20
2017-11-27T14:05:32.737Z,4.10
2017-11-27T14:08:01.022Z,3.90
2017-11-27T14:10:29.284Z,3.90
2017-11-27T14:12:57.569Z,3.70
2017-11-27T14:15:25.828Z,3.70
2017-11-27T14:17:53.349Z,3.60
2017-11-27T14:20:20.847Z,3.60
2017-11-27T14:22:48.368Z,3.60
2017-11-27T14:25:15.869Z,3.60
2017-11-27T14:27:44.143Z,3.50
2017-11-27T14:30:12.426Z,3.50
2017-11-27T14:32:40.687Z,3.50
2017-11-27T14:35:08.205Z,3.50
2017-11-27T14:37:35.707Z,3.70
2017-11-27T14:40:03.232Z,3.60
2017-11-27T14:42:30.736Z,3.60
2017-11-27T14:44:59.021Z,3.40
2017-11-27T14:47:26.549Z,3.40
2017-11-27T14:49:54.082Z,3.30
2017-11-27T14:52:22.361Z,3.20
2017-11-27T14:54:49.876Z,3.20
2017-11-27T14:57:18.445Z,3.10
2017-11-27T14:59:46.740Z,3.00
2017-11-27T15:02:14.242Z,3.00
2017-11-27T15:04:41.755Z,3.00
2017-11-27T15:07:09.256Z,3.00
2017-11-27T15:09:36.777Z,3.10
2017-11-27T15:12:04.283Z,2.90
2017-11-27T15:14:31.798Z,3.00
2017-11-27T15:16:59.310Z,3.10
2017-11-27T15:19:26.860Z,3.10
2017-11-27T15:21:54.361Z,3.10
2017-11-27T15:24:21.862Z,3.10
2017-11-27T15:26:49.385Z,3.10
2017-11-27T15:29:16.898Z,3.00
2017-11-27T15:31:44.431Z,3.00
2017-11-27T15:34:11.931Z,2.90
2017-11-27T15:36:40.226Z,2.80
2017-11-27T15:39:07.762Z,2.80
2017-11-27T15:41:35.272Z,2.90
2017-11-27T15:44:02.772Z,2.90
2017-11-27T15:46:31.069Z,2.70
2017-11-27T15:48:59.341Z,2.90
2017-11-27T15:51:26.862Z,2.80
2017-11-27T15:53:54.364Z,2.90
2017-11-27T15:56:21.905Z,2.90
2017-11-27T15:58:49.435Z,2.90
2017-11-27T16:01:16.973Z,2.90
2017-11-27T16:03:44.478Z,2.80
2017-11-27T16:06:12.760Z,2.90
2017-11-27T16:08:41.043Z,2.90
2017-11-27T16:11:08.585Z,2.90
2017-11-27T16:13:36.852Z,3.00
2017-11-27T16:16:04.385Z,2.90
2017-11-27T16:18:31.889Z,3.10
2017-11-27T16:21:00.152Z,3.00
2017-11-27T16:23:28.433Z,2.90
2017-11-27T16:25:56.696Z,2.90
2017-11-27T16:28:24.208Z,2.90
2017-11-27T16:30:51.709Z,2.80
2017-11-27T16:33:19.224Z,2.90
2017-11-27T16:35:46.725Z,2.90
2017-11-27T16:38:14.251Z,2.90
2017-11-27T16:40:41.766Z,2.90
2017-11-27T16:43:10.044Z,2.80
2017-11-27T16:45:38.309Z,2.80
2017-11-27T16:48:06.595Z,2.80
2017-11-27T16:50:34.882Z,2.70
2017-11-27T16:53:02.411Z,2.70
2017-11-27T16:55:30.707Z,2.80
2017-11-27T16:57:59.027Z,2.80
2017-11-27T17:00:27.330Z,2.80
2017-11-27T17:02:55.917Z,2.70
2017-11-27T17:05:23.458Z,2.70
2017-11-27T17:07:51.009Z,2.90
2017-11-27T17:10:18.517Z,2.90
2017-11-27T17:12:46.780Z,2.90
2017-11-27T17:15:15.065Z,3.00
2017-11-27T17:17:43.347Z,3.00
2017-11-27T17:20:11.642Z,3.00
2017-11-27T17:22:39.149Z,3.00
2017-11-27T17:25:06.677Z,3.00
2017-11-27T17:27:34.194Z,3.10
2017-11-27T17:30:02.477Z,3.00
2017-11-27T17:32:29.980Z,3.00
2017-11-27T17:34:57.501Z,3.10
2017-11-27T17:37:24.996Z,3.10
2017-11-27T17:39:52.505Z,3.10
2017-11-27T17:42:20.784Z,3.10
2017-11-27T17:44:48.321Z,3.10
2017-11-27T17:47:16.618Z,3.10
2017-11-27T17:49:44.141Z,3.00
2017-11-27T17:52:11.702Z,3.10
2017-11-27T17:54:40.051Z,2.90
2017-11-27T17:57:07.567Z,2.90
2017-11-27T17:59:35.096Z,2.90
2017-11-27T18:02:02.605Z,2.90
2017-11-27T18:04:30.142Z,2.90
2017-11-27T18:06:58.449Z,2.80
2017-11-27T18:09:25.948Z,2.80
2017-11-27T18:11:53.468Z,2.90
2017-11-27T18:14:20.973Z,2.80
2017-11-27T18:16:48.488Z,2.80
2017-11-27T18:19:15.984Z,2.80
2017-11-27T18:21:43.500Z,2.90
2017-11-27T18:24:11.003Z,2.80
2017-11-27T18:26:38.528Z,2.70
2017-11-27T18:29:06.062Z,2.80
2017-11-27T18:31:33.613Z,2.80
2017-11-27T18:34:01.145Z,2.70
2017-11-27T18:36:28.670Z,2.70
2017-11-27T18:38:56.180Z,2.70
2017-11-27T18:41:23.696Z,2.80
2017-11-27T18:43:51.217Z,2.80
2017-11-27T18:46:18.716Z,2.80
2017-11-27T18:48:46.233Z,2.80
2017-11-27T18:51:13.734Z,2.70
2017-11-27T18:53:41.257Z,2.70
2017-11-27T18:56:08.752Z,2.70
2017-11-27T18:58:36.269Z,2.70
2017-11-27T19:01:03.769Z,2.80
2017-11-27T19:03:31.301Z,2.80
2017-11-27T19:05:58.797Z,2.90
2017-11-27T19:08:27.109Z,2.90
2017-11-27T19:10:54.596Z,2.80
2017-11-27T19:13:22.116Z,2.80
2017-11-27T19:15:49.617Z,2.90
2017-11-27T19:18:17.136Z,2.80
2017-11-27T19:20:44.636Z,2.80
2017-11-27T19:23:12.153Z,2.70
2017-11-27T19:25:39.670Z,2.70
2017-11-27T19:28:07.180Z,2.80
2017-11-27T19:30:34.675Z,2.80
2017-11-27T19:33:02.193Z,2.70
2017-11-27T19:35:29.689Z,2.70
2017-11-27T19:37:57.207Z,2.70
2017-11-27T19:40:24.704Z,2.70
2017-11-27T19:42:52.214Z,2.70
2017-11-27T19:45:19.746Z,2.70
2017-11-27T19:47:48.028Z,2.80
2017-11-27T19:50:16.336Z,3.00
2017-11-27T19:52:44.626Z,2.90
2017-11-27T19:55:12.127Z,3.00
2017-11-27T19:57:39.621Z,3.00
2017-11-27T20:00:07.133Z,3.00
2017-11-27T20:02:34.637Z,2.90
2017-11-27T20:05:02.149Z,2.80
2017-11-27T20:07:29.652Z,2.90
2017-11-27T20:09:57.164Z,3.00
2017-11-27T20:12:24.666Z,3.00
2017-11-27T20:14:52.200Z,3.10
2017-11-27T20:17:20.477Z,3.10
2017-11-27T20:19:48.754Z,3.20
2017-11-27T20:22:17.013Z,3.20
2017-11-27T20:24:44.532Z,3.20
2017-11-27T20:27:12.033Z,3.20
2017-11-27T20:29:39.549Z,3.10
2017-11-27T20:32:07.060Z,3.20
2017-11-27T20:34:35.337Z,3.20
2017-11-27T20:37:03.601Z,3.10
2017-11-27T20:39:31.901Z,3.10
2017-11-27T20:41:59.400Z,3.10
2017-11-27T20:44:26.914Z,3.10
2017-11-27T20:46:54.428Z,3.10
2017-11-27T20:49:21.924Z,3.20
2017-11-27T20:51:50.259Z,3.20
2017-11-27T20:54:18.585Z,3.30
2017-11-27T20:56:46.113Z,3.20
2017-11-27T20:59:13.610Z,3.20
2017-11-27T21:01:41.123Z,3.20
2017-11-27T21:04:08.616Z,3.20
2017-11-27T21:06:36.891Z,3.20
2017-11-27T21:09:05.152Z,3.20
2017-11-27T21:11:33.440Z,3.10
2017-11-27T21:14:01.705Z,3.10
2017-11-27T21:16:29.994Z,3.00
2017-11-27T21:18:57.493Z,3.00
2017-11-27T21:21:25.008Z,3.00
2017-11-27T21:23:53.273Z,2.90
2017-11-27T21:26:21.558Z,2.80
2017-11-27T21:28:49.814Z,2.60
2017-11-27T21:31:17.324Z,2.50
2017-11-27T21:33:44.820Z,2.50
2017-11-27T21:36:12.328Z,2.40
2017-11-27T21:38:39.829Z,2.50
2017-11-27T21:41:07.360Z,2.40
2017-11-27T21:43:34.852Z,2.20
2017-11-27T21:46:02.352Z,2.20
2017-11-27T21:48:29.865Z,2.10
2017-11-27T21:50:57.365Z,2.00
2017-11-27T21:53:24.884Z,1.90
2017-11-27T21:55:52.404Z,2.00
2017-11-27T21:58:19.939Z,1.90
2017-11-27T22:00:47.444Z,1.80
2017-11-27T22:03:14.956Z,1.80
2017-11-27T22:05:42.460Z,1.80
2017-11-27T22:08:09.982Z,1.80
2017-11-27T22:10:37.491Z,1.80
2017-11-27T22:13:05.005Z,1.80
2017-11-27T22:15:32.507Z,1.80
2017-11-27T22:18:00.017Z,1.90
2017-11-27T22:20:27.516Z,2.00
2017-11-27T22:22:55.029Z,2.00
2017-11-27T22:25:22.536Z,2.00
2017-11-27T22:27:50.052Z,2.00
2017-11-27T22:30:17.548Z,2.10
2017-11-27T22:32:45.066Z,2.00
2017-11-27T22:35:12.566Z,2.00
2017-11-27T22:37:40.076Z,2.00
2017-11-27T22:40:07.577Z,2.00
2017-11-27T22:42:35.104Z,1.90
2017-11-27T22:45:02.605Z,2.00
2017-11-27T22:47:30.876Z,2.00
2017-11-27T22:49:58.449Z,2.00
2017-11-27T22:52:26.718Z,2.10
2017-11-27T22:54:54.228Z,2.00
2017-11-27T22:57:21.732Z,2.10
2017-11-27T22:59:49.247Z,2.10
2017-11-27T23:02:16.749Z,2.10
2017-11-27T23:04:44.269Z,2.10
2017-11-27T23:07:11.760Z,2.10
2017-11-27T23:09:39.276Z,2.10
2017-11-27T23:12:06.772Z,2.20
2017-11-27T23:14:34.289Z,2.20
2017-11-27T23:17:01.786Z,2.20
2017-11-27T23:19:29.301Z,2.20
2017-11-27T23:21:56.800Z,2.30
2017-11-27T23:24:24.318Z,2.30
2017-11-27T23:26:51.819Z,2.30
2017-11-27T23:29:19.329Z,2.40
2017-11-27T23:31:46.825Z,2.40
2017-11-27T23:34:14.340Z,2.40
2017-11-27T23:36:41.872Z,2.50
2017-11-27T23:39:10.142Z,2.60
2017-11-27T23:41:38.452Z,2.80
2017-11-27T23:44:06.099Z,2.70
2017-11-27T23:46:33.991Z,2.90
2017-11-27T23:49:01.491Z,3.00
2017-11-27T23:51:29.011Z,3.00
2017-11-27T23:53:56.508Z,3.10
2017-11-27T23:56:24.024Z,3.10
2017-11-27T23:58:51.520Z,3.20
